Wood Dale, IL

9:40 PM CDT on September 04, 2015 (GMT -0500)
WDJH | | Change Station
CLOSE
Current Station
Personal Weather Station
Location: Wood Dale, IL
Elevation: 719 ft
Nearby Weather Stations

Elev 719 ft 41.98 °N, 87.98 °W | Updated 11 seconds ago

Scattered Clouds
Scattered Clouds
71.6 °F
Feels Like 70 °F
N
1.0
Wind Variable Wind from East
Gusts 4.0 mph

Today
High -- | Low -- °F
--% Chance of Precip.
Yesterday
High -- | Low -- °F
Precip. -- in
6:20 AM 7:20 PM
Waning Gibbous, 53% visible
Pressure 30.04 in
Visibility 10.0 miles
Clouds Few 12000 ft
Scattered Clouds 25000 ft
Heat Index 70 °F
Dew Point 67 °F
Humidity 86%
Rainfall 0.00 in
Snow Depth Not available.
UV 0 out of 12
Pollen 8.90 out of 12
Air Quality Not available.
Flu Activity Not available.
METAR KORD 050151Z 07005KT 10SM FEW120 SCT250 22/19 A3004 RMK AO2 SLP171 T02220189
Pressure 30.04 in
Visibility 10.0 miles
Clouds Few 12000 ft
Scattered Clouds 25000 ft
Heat Index 70 °F
Dew Point 67 °F
Humidity 86%
Rainfall 0.00 in
Snow Depth Not available.
UV 0 out of 12
Pollen 8.90 out of 12
Air Quality Not available.
Flu Activity Not available.
METAR KORD 050151Z 07005KT 10SM FEW120 SCT250 22/19 A3004 RMK AO2 SLP171 T02220189

10-Day Weather Forecast

×

Almanac

Astronomy

Sep. 04, 2015 Rise Set
Actual Time
Civil Twilight
Nautical Twilight
Astronomical Twilight
Moon
Length of Visible Light
Length of Day
Tomorrow will be .
, % of the Moon is Illuminated

Today's Extremes

State Highs State Lows

Community

WunderPhotos

Upload Photos

1,852,392 photos uploaded!

WunderBlogs® & News

Nearby

Air Quality

  Air Quality AQ Index Pollutant
Not available.

Snow Depth

Station Depth Elevation

Earthquake Activity

City Distance Mag. Time & Date
Minimum magnitude displayed is 2.5.

Coastal Water Temperatures

Place Temperature

Stations

Nearby Weather Stations

Station Location Temp. Windchill Dew Point Humidity Wind Precip. Elev Updated Type